KR-0320 weather

Kaiser Village Apartments Heliports
Busan, Busan Gwang'yeogsi, South Korea

Public forecast

Using degrees Celsius for public forecast. Weather courtesy of forecast.io.

METAR (pilot weather report)

Closest report is Gimhae International Airport, 10.3 nm (19.1 km) W. Retrieved 2019/08/20 08:00 UTC (36 minutes ago):

RKPK 200800Z 02012KT CAVOK 29/20 Q1009

TAF (pilot weather forecast)

Closest forecast is Gimhae International Airport, 10.3 nm (19.1 km) W. Retrieved 2019/08/20 06:00 UTC (3 hours ago):

TAF COR RKPK 200500Z 2006/2112 06008KT 9999 SCT030 BKN050 TN26/2020Z TX29/2105Z TEMPO 2015/2023 18006KT 4800 -RA BR SCT015 BKN030 BECMG 2023/2024 BKN015 OVC030